This is the latest recevied weather packets stored in our database for station/object KB2EAR-13. If no packets are shown the sender has not sent any weather packets the latest 10 day(s).
| Time | Temp. | Humidity | Pressure | Rain* | Wind** | Luminosity | Snow |
|---|---|---|---|---|---|---|---|
| 1777510270 | 10.56° C | 87% | 1011.6 hPa | 0.51 mm | - | - | - |
| 1777509918 | 10.56° C | 86% | 1011.7 hPa | 0.76 mm | - | - | - |
| 1777509618 | 10.56° C | 86% | 1011.7 hPa | 0.76 mm | - | - | - |
| 1777509318 | 10.56° C | 85% | 1011.5 hPa | 0.76 mm | - | - | - |
| 1777509238 | 10.56° C | 85% | 1011.3 hPa | 0.76 mm | - | - | - |
| 1777509018 | 10.56° C | 85% | 1011.3 hPa | 0.76 mm | - | - | - |
| 1777508766 | 10.56° C | 84% | 1011.2 hPa | 0.76 mm | - | - | - |
| 1777508568 | 10.56° C | 83% | 1011.1 hPa | 0.51 mm | - | - | - |
| 1777508118 | 11.11° C | 83% | 1011.1 hPa | 0.51 mm | - | - | - |
| 1777508029 | 11.11° C | 82% | 1010.8 hPa | 0.51 mm | - | - | - |
| 1777507518 | 11.11° C | 81% | 1010.7 hPa | 0.51 mm | - | - | - |
| 1777505420 | 13.33° C | 67% | 1011.2 hPa | 0 mm | - | - | - |
| 1777505118 | 13.33° C | 66% | 1011.3 hPa | 0 mm | - | - | - |
| 1777500110 | 13.89° C | 73% | 1011.3 hPa | 0 mm | - | - | - |
| 1777500038 | 13.89° C | 73% | 1011.3 hPa | 0 mm | - | - | - |
| 1777498218 | 15° C | 71% | 1011.7 hPa | 0 mm | - | - | - |
| 1777496718 | 15.56° C | 63% | 1011.4 hPa | 0 mm | - | - | - |
| 1777495818 | 16.11° C | 62% | 1011.8 hPa | 0 mm | - | - | - |
| 1777491018 | 18.89° C | 56% | 1012.6 hPa | 0 mm | - | - | - |
| 1777480517 | 17.78° C | 53% | 1014.7 hPa | 0 mm | - | - | - |
| 1777479917 | 17.22° C | 56% | 1015 hPa | 0 mm | - | - | - |
| 1777479017 | 16.67° C | 55% | 1015.5 hPa | 0 mm | - | - | - |
| 1777478509 | 16.67° C | 52% | 1015.5 hPa | 0 mm | - | - | - |
| 1777477018 | 16.67° C | 52% | 1015.7 hPa | 0 mm | - | - | - |
| 1777476917 | 16.67° C | 52% | 1015.7 hPa | 0 mm | - | - | - |
* Rain latest hour (hover to see other rain measurements)
** Current wind speed in m/s (hover to see current wind gust speed)